MSC Mandraki — SZUH — position and weather

sailwx.info

Track history (hours):
 
Tides and Currents Weather Stations Pressure Air Temp Water Temp Dewpoint Dewpoint Depression Visibility Wind Speed Wind Dir Waves Ship Positions

MSC Mandraki

Last reported at 2017-Jan-20 21:33 UTC. Time now 2017-Jan-20 21:59 UTC.
Position N 51°18' E 004°16'.

Length 294 m; draft 8.5 m.

Type: Ship. MMSI: 240265000.

Date/timePositionNaut miles runAvg speedWind from/ knotsBaromVisibWave heightAir tempDewpointWater temp
2017-Jan-20 21:33N 51°18' E 004°16'0 0.0
2017-Jan-20 20:33N 51°18' E 004°16'0 0.0
2017-Jan-20 19:33N 51°18' E 004°16'0 0.0
2017-Jan-20 18:33N 51°18' E 004°16'0 0.0
2017-Jan-20 17:30N 51°18' E 004°16'0 0.0
2017-Jan-20 16:31N 51°18' E 004°16'3 3.5
2017-Jan-20 15:33N 51°21' E 004°15'9 8.8
2017-Jan-20 14:33N 51°24' E 004°02'9 9.1
2017-Jan-20 13:34N 51°21' E 003°49'1010.1
2017-Jan-20 12:33N 51°26' E 003°34'1313.2
2017-Jan-20 11:33N 51°24' E 003°13'9 8.8
2017-Jan-20 10:33N 51°31' E 003°04'1515.1
2017-Jan-20 09:34N 51°45' E 003°14'6 5.7
2017-Jan-20 08:31N 51°49' E 003°22'0 0.0
2017-Jan-20 07:31N 51°49' E 003°22'0 0.0
2017-Jan-20 06:31N 51°49' E 003°22'0 0.2
2017-Jan-20 05:31N 51°49' E 003°21'0 0.1
2017-Jan-20 04:19N 51°48' E 003°21'0 0.0
2017-Jan-20 03:31N 51°48' E 003°21'0 0.0
2017-Jan-20 02:31N 51°48' E 003°21'0 0.0
2017-Jan-20 01:28N 51°48' E 003°21'0 0.0
2017-Jan-20 00:31N 51°48' E 003°21'0 0.0
2017-Jan-19 23:31N 51°48' E 003°21'0 0.1
2017-Jan-19 22:33N 51°49' E 003°21'1110.8
2017-Jan-19 21:33N 51°59' E 003°20'1515.3
2017-Jan-19 20:33N 52°03' E 003°45'1312.9
2017-Jan-19 19:34N 51°59' E 004°04'1 1.4
2017-Jan-19 18:33N 51°58' E 004°04'0 0.0
2017-Jan-19 17:33N 51°58' E 004°04'0 0.0
2017-Jan-19 16:33N 51°58' E 004°04'0 0.0
2017-Jan-19 15:33N 51°58' E 004°04'0 0.0
2017-Jan-19 14:33N 51°58' E 004°04'0 0.0
2017-Jan-19 13:33N 51°58' E 004°04'0 0.0
2017-Jan-19 12:33N 51°58' E 004°04'0 0.0
2017-Jan-19 11:33N 51°58' E 004°04'0 0.0
2017-Jan-19 10:33N 51°58' E 004°04'0 0.0
2017-Jan-19 09:33N 51°58' E 004°04'0 0.0
2017-Jan-19 08:33N 51°58' E 004°04'0 0.0
2017-Jan-19 07:33N 51°58' E 004°04'0 0.0
2017-Jan-19 06:33N 51°58' E 004°04'0 0.0
2017-Jan-19 05:33N 51°58' E 004°04'0 0.0
2017-Jan-19 04:33N 51°58' E 004°04'0 0.0
2017-Jan-19 03:33N 51°58' E 004°04'0 0.0
2017-Jan-19 02:33N 51°58' E 004°04'0 0.0
2017-Jan-19 01:32N 51°58' E 004°04'0 0.0
2017-Jan-19 00:32N 51°58' E 004°04'0 0.0
2017-Jan-18 23:32N 51°58' E 004°04'0 0.0
2017-Jan-18 22:32N 51°58' E 004°04'0 0.0
2017-Jan-18 21:32N 51°58' E 004°04'0 0.0
2017-Jan-18 20:32N 51°58' E 004°04'1 0.8
2017-Jan-18 19:33N 51°58' E 004°05'8 8.5
2017-Jan-18 18:33N 51°60' E 003°52'8 7.5
2017-Jan-18 17:32N 51°59' E 003°39'4 3.7
2017-Jan-18 16:33N 51°57' E 003°34'8 8.0
2017-Jan-18 15:32N 51°53' E 003°23'6 5.5
2017-Jan-18 14:28N 51°47' E 003°21'0 0.0
2017-Jan-18 13:13N 51°47' E 003°21'0 0.0
2017-Jan-18 11:31N 51°47' E 003°21'0 0.1
2017-Jan-18 10:28N 51°47' E 003°20'0 0.1
2017-Jan-18 09:31N 51°48' E 003°21'0 0.1
2017-Jan-18 08:31N 51°48' E 003°21'0 0.0
2017-Jan-18 07:31N 51°48' E 003°21'0 0.0
2017-Jan-18 06:31N 51°48' E 003°21'0 0.0
2017-Jan-18 05:22N 51°48' E 003°21'0 0.0
2017-Jan-18 04:31N 51°48' E 003°21'0 0.1
2017-Jan-18 02:04N 51°47' E 003°21'0 0.0
2017-Jan-17 21:31N 51°47' E 003°21'0 0.1
2017-Jan-17 20:28N 51°48' E 003°21'0 0.1
2017-Jan-17 19:31N 51°48' E 003°21'0 0.0
2017-Jan-17 18:31N 51°48' E 003°21'0 0.0
2017-Jan-17 17:31N 51°48' E 003°21'0 0.0
2017-Jan-17 16:28N 51°48' E 003°21'0 0.1
2017-Jan-17 15:25N 51°47' E 003°21'0 0.2
2017-Jan-17 14:22N 51°47' E 003°21'0 0.0
2017-Jan-17 13:31N 51°47' E 003°21'0 0.0
2017-Jan-17 12:31N 51°47' E 003°21'0 0.0
2017-Jan-17 11:16N 51°47' E 003°21'0 0.1
2017-Jan-17 10:25N 51°47' E 003°20'0 0.1
2017-Jan-17 09:31N 51°47' E 003°20'0 0.1
2017-Jan-17 08:31N 51°48' E 003°21'0 0.1
2017-Jan-17 07:31N 51°48' E 003°21'0 0.0
2017-Jan-17 06:28N 51°48' E 003°21'0 0.0
2017-Jan-17 05:31N 51°48' E 003°21'0 0.0
2017-Jan-17 04:31N 51°48' E 003°21'0 0.2
2017-Jan-17 03:25N 51°47' E 003°20'2 2.6
2017-Jan-17 02:33N 51°48' E 003°17'1515.4
2017-Jan-17 01:33N 52°04' E 003°21'1616.4
2017-Jan-17 00:34N 52°20' E 003°25'1716.6
2017-Jan-16 23:33N 52°36' E 003°30'1616.5
2017-Jan-16 22:34N 52°49' E 003°47'1615.6
2017-Jan-16 21:34N 53°01' E 004°05'1514.8
2017-Jan-16 20:33N 53°10' E 004°23'1414.2
2017-Jan-16 19:34N 53°23' E 004°32'33014.3
2017-Jan-15 20:29N 57°54' E 010°09'1515.6
2017-Jan-15 19:32N 57°53' E 010°37'1515.5
2017-Jan-15 18:33N 57°42' E 010°58'1615.6
2017-Jan-15 17:33N 57°32' E 011°19'1515.4
2017-Jan-15 16:34N 57°18' E 011°33'1615.7
2017-Jan-15 15:33N 57°04' E 011°42'4413.4
2017-Jan-15 12:15N 56°23' E 011°10'812.2
2017-Jan-15 11:33N 56°15' E 011°05'1615.6
2017-Jan-15 10:30N 55°59' E 011°01'4214.2
2017-Jan-15 07:34N 55°17' E 011°04'1414.2
2017-Jan-15 06:34N 55°03' E 010°60'1514.6
2017-Jan-15 05:33N 54°50' E 010°50'1110.6
2017-Jan-15 04:34N 54°39' E 010°51'1413.7
2017-Jan-15 03:33N 54°35' E 011°13'1414.2
2017-Jan-15 02:33N 54°29' E 011°35'1514.3
2017-Jan-15 01:32N 54°26' E 012°00'1212.5
2017-Jan-15 00:33N 54°34' E 012°15'4715.1
2017-Jan-14 21:28N 54°56' E 013°27'1415.4
2017-Jan-14 20:32N 55°01' E 013°50'1515.1
2017-Jan-14 19:33N 55°10' E 014°11'1515.4
2017-Jan-14 18:33N 55°21' E 014°29'1515.0
2017-Jan-14 17:33N 55°30' E 014°50'1615.5
2017-Jan-14 16:32N 55°38' E 015°15'1515.3
2017-Jan-14 15:32N 55°41' E 015°42'132 2.7
2017-Jan-12 14:21N 55°04' E 019°25'1518.8
2017-Jan-12 13:34N 54°52' E 019°10'2019.6
2017-Jan-12 12:33N 54°35' E 018°53'1211.8
2017-Jan-12 11:33N 54°32' E 018°33'1 1.4
2017-Jan-12 10:31N 54°33' E 018°31'0 0.0
2017-Jan-12 09:31N 54°33' E 018°31'0 0.0
2017-Jan-12 08:31N 54°33' E 018°31'0 0.0
2017-Jan-12 07:31N 54°33' E 018°31'0 0.0
2017-Jan-12 06:31N 54°33' E 018°31'0 0.0
2017-Jan-12 05:31N 54°33' E 018°31'0 0.0
2017-Jan-12 04:31N 54°33' E 018°31'0 0.0
2017-Jan-12 03:31N 54°33' E 018°31'0 0.0
2017-Jan-12 02:31N 54°33' E 018°31'0 0.0
2017-Jan-12 01:31N 54°33' E 018°31'0 0.0
2017-Jan-12 00:31N 54°33' E 018°31'0 0.0
2017-Jan-11 23:31N 54°33' E 018°31'0 0.0
2017-Jan-11 22:31N 54°33' E 018°31'0 0.0
2017-Jan-11 21:31N 54°33' E 018°31'0 0.0
2017-Jan-11 20:31N 54°33' E 018°31'0 0.0
2017-Jan-11 19:31N 54°33' E 018°31'0 0.0
2017-Jan-11 18:31N 54°33' E 018°31'0 0.0
2017-Jan-11 17:31N 54°33' E 018°31'0 0.0
2017-Jan-11 16:31N 54°33' E 018°31'0 0.0
2017-Jan-11 15:31N 54°33' E 018°31'0 0.0
2017-Jan-11 14:31N 54°33' E 018°31'0 0.0
2017-Jan-11 13:31N 54°33' E 018°31'0 0.0
2017-Jan-11 12:31N 54°33' E 018°31'0 0.0
2017-Jan-11 11:31N 54°33' E 018°31'0 0.0
2017-Jan-11 10:31N 54°33' E 018°31'0 0.0
2017-Jan-11 09:31N 54°33' E 018°31'0 0.0
2017-Jan-11 08:31N 54°33' E 018°31'0 0.0
2017-Jan-11 07:31N 54°33' E 018°31'0 0.0
2017-Jan-11 06:31N 54°33' E 018°31'0 0.0
2017-Jan-11 05:31N 54°33' E 018°31'0 0.0
2017-Jan-11 04:31N 54°33' E 018°31'0 0.0
2017-Jan-11 03:31N 54°33' E 018°31'3 2.9
2017-Jan-11 02:34N 54°32' E 018°36'1212.4
2017-Jan-11 01:33N 54°38' E 018°54'1615.8
2017-Jan-11 00:33N 54°53' E 018°47'1817.9
2017-Jan-10 23:33N 55°04' E 018°22'  
Track history (hours):
 
Tides and Currents Weather Stations Pressure Air Temp Water Temp Dewpoint Dewpoint Depression Visibility Wind Speed Wind Dir Waves Ship Positions

MSC Mandraki

Last reported at 2017-Jan-20 21:33 UTC. Time now 2017-Jan-20 21:59 UTC.
Position N 51°18' E 004°16'.

Length 294 m; draft 8.5 m.

Type: Ship. MMSI: 240265000.

Date/timePositionNaut miles runAvg speedWind from/ knotsBaromVisibWave heightAir tempDewpointWater temp
2017-Jan-20 21:33N 51°18' E 004°16'0 0.0
2017-Jan-20 20:33N 51°18' E 004°16'0 0.0
2017-Jan-20 19:33N 51°18' E 004°16'0 0.0
2017-Jan-20 18:33N 51°18' E 004°16'0 0.0
2017-Jan-20 17:30N 51°18' E 004°16'0 0.0
2017-Jan-20 16:31N 51°18' E 004°16'3 3.5
2017-Jan-20 15:33N 51°21' E 004°15'9 8.8
2017-Jan-20 14:33N 51°24' E 004°02'9 9.1
2017-Jan-20 13:34N 51°21' E 003°49'1010.1
2017-Jan-20 12:33N 51°26' E 003°34'1313.2
2017-Jan-20 11:33N 51°24' E 003°13'9 8.8
2017-Jan-20 10:33N 51°31' E 003°04'1515.1
2017-Jan-20 09:34N 51°45' E 003°14'6 5.7
2017-Jan-20 08:31N 51°49' E 003°22'0 0.0
2017-Jan-20 07:31N 51°49' E 003°22'0 0.0
2017-Jan-20 06:31N 51°49' E 003°22'0 0.2
2017-Jan-20 05:31N 51°49' E 003°21'0 0.1
2017-Jan-20 04:19N 51°48' E 003°21'0 0.0
2017-Jan-20 03:31N 51°48' E 003°21'0 0.0
2017-Jan-20 02:31N 51°48' E 003°21'0 0.0
2017-Jan-20 01:28N 51°48' E 003°21'0 0.0
2017-Jan-20 00:31N 51°48' E 003°21'0 0.0
2017-Jan-19 23:31N 51°48' E 003°21'0 0.1
2017-Jan-19 22:33N 51°49' E 003°21'1110.8
2017-Jan-19 21:33N 51°59' E 003°20'1515.3
2017-Jan-19 20:33N 52°03' E 003°45'1312.9
2017-Jan-19 19:34N 51°59' E 004°04'1 1.4
2017-Jan-19 18:33N 51°58' E 004°04'0 0.0
2017-Jan-19 17:33N 51°58' E 004°04'0 0.0
2017-Jan-19 16:33N 51°58' E 004°04'0 0.0
2017-Jan-19 15:33N 51°58' E 004°04'0 0.0
2017-Jan-19 14:33N 51°58' E 004°04'0 0.0
2017-Jan-19 13:33N 51°58' E 004°04'0 0.0
2017-Jan-19 12:33N 51°58' E 004°04'0 0.0
2017-Jan-19 11:33N 51°58' E 004°04'0 0.0
2017-Jan-19 10:33N 51°58' E 004°04'0 0.0
2017-Jan-19 09:33N 51°58' E 004°04'0 0.0
2017-Jan-19 08:33N 51°58' E 004°04'0 0.0
2017-Jan-19 07:33N 51°58' E 004°04'0 0.0
2017-Jan-19 06:33N 51°58' E 004°04'0 0.0
2017-Jan-19 05:33N 51°58' E 004°04'0 0.0
2017-Jan-19 04:33N 51°58' E 004°04'0 0.0
2017-Jan-19 03:33N 51°58' E 004°04'0 0.0
2017-Jan-19 02:33N 51°58' E 004°04'0 0.0
2017-Jan-19 01:32N 51°58' E 004°04'0 0.0
2017-Jan-19 00:32N 51°58' E 004°04'0 0.0
2017-Jan-18 23:32N 51°58' E 004°04'0 0.0
2017-Jan-18 22:32N 51°58' E 004°04'0 0.0
2017-Jan-18 21:32N 51°58' E 004°04'0 0.0
2017-Jan-18 20:32N 51°58' E 004°04'1 0.8
2017-Jan-18 19:33N 51°58' E 004°05'8 8.5
2017-Jan-18 18:33N 51°60' E 003°52'8 7.5
2017-Jan-18 17:32N 51°59' E 003°39'4 3.7
2017-Jan-18 16:33N 51°57' E 003°34'8 8.0
2017-Jan-18 15:32N 51°53' E 003°23'6 5.5
2017-Jan-18 14:28N 51°47' E 003°21'0 0.0
2017-Jan-18 13:13N 51°47' E 003°21'0 0.0
2017-Jan-18 11:31N 51°47' E 003°21'0 0.1
2017-Jan-18 10:28N 51°47' E 003°20'0 0.1
2017-Jan-18 09:31N 51°48' E 003°21'0 0.1
2017-Jan-18 08:31N 51°48' E 003°21'0 0.0
2017-Jan-18 07:31N 51°48' E 003°21'0 0.0
2017-Jan-18 06:31N 51°48' E 003°21'0 0.0
2017-Jan-18 05:22N 51°48' E 003°21'0 0.0
2017-Jan-18 04:31N 51°48' E 003°21'0 0.1
2017-Jan-18 02:04N 51°47' E 003°21'0 0.0
2017-Jan-17 21:31N 51°47' E 003°21'0 0.1
2017-Jan-17 20:28N 51°48' E 003°21'0 0.1
2017-Jan-17 19:31N 51°48' E 003°21'0 0.0
2017-Jan-17 18:31N 51°48' E 003°21'0 0.0
2017-Jan-17 17:31N 51°48' E 003°21'0 0.0
2017-Jan-17 16:28N 51°48' E 003°21'0 0.1
2017-Jan-17 15:25N 51°47' E 003°21'0 0.2
2017-Jan-17 14:22N 51°47' E 003°21'0 0.0
2017-Jan-17 13:31N 51°47' E 003°21'0 0.0
2017-Jan-17 12:31N 51°47' E 003°21'0 0.0
2017-Jan-17 11:16N 51°47' E 003°21'0 0.1
2017-Jan-17 10:25N 51°47' E 003°20'0 0.1
2017-Jan-17 09:31N 51°47' E 003°20'0 0.1
2017-Jan-17 08:31N 51°48' E 003°21'0 0.1
2017-Jan-17 07:31N 51°48' E 003°21'0 0.0
2017-Jan-17 06:28N 51°48' E 003°21'0 0.0
2017-Jan-17 05:31N 51°48' E 003°21'0 0.0
2017-Jan-17 04:31N 51°48' E 003°21'0 0.2
2017-Jan-17 03:25N 51°47' E 003°20'2 2.6
2017-Jan-17 02:33N 51°48' E 003°17'1515.4
2017-Jan-17 01:33N 52°04' E 003°21'1616.4
2017-Jan-17 00:34N 52°20' E 003°25'1716.6
2017-Jan-16 23:33N 52°36' E 003°30'1616.5
2017-Jan-16 22:34N 52°49' E 003°47'1615.6
2017-Jan-16 21:34N 53°01' E 004°05'1514.8
2017-Jan-16 20:33N 53°10' E 004°23'1414.2
2017-Jan-16 19:34N 53°23' E 004°32'33014.3
2017-Jan-15 20:29N 57°54' E 010°09'1515.6
2017-Jan-15 19:32N 57°53' E 010°37'1515.5
2017-Jan-15 18:33N 57°42' E 010°58'1615.6
2017-Jan-15 17:33N 57°32' E 011°19'1515.4
2017-Jan-15 16:34N 57°18' E 011°33'1615.7
2017-Jan-15 15:33N 57°04' E 011°42'4413.4
2017-Jan-15 12:15N 56°23' E 011°10'812.2
2017-Jan-15 11:33N 56°15' E 011°05'1615.6
2017-Jan-15 10:30N 55°59' E 011°01'4214.2
2017-Jan-15 07:34N 55°17' E 011°04'1414.2
2017-Jan-15 06:34N 55°03' E 010°60'1514.6
2017-Jan-15 05:33N 54°50' E 010°50'1110.6
2017-Jan-15 04:34N 54°39' E 010°51'1413.7
2017-Jan-15 03:33N 54°35' E 011°13'1414.2
2017-Jan-15 02:33N 54°29' E 011°35'1514.3
2017-Jan-15 01:32N 54°26' E 012°00'1212.5
2017-Jan-15 00:33N 54°34' E 012°15'4715.1
2017-Jan-14 21:28N 54°56' E 013°27'1415.4
2017-Jan-14 20:32N 55°01' E 013°50'1515.1
2017-Jan-14 19:33N 55°10' E 014°11'1515.4
2017-Jan-14 18:33N 55°21' E 014°29'1515.0
2017-Jan-14 17:33N 55°30' E 014°50'1615.5
2017-Jan-14 16:32N 55°38' E 015°15'1515.3
2017-Jan-14 15:32N 55°41' E 015°42'132 2.7
2017-Jan-12 14:21N 55°04' E 019°25'1518.8
2017-Jan-12 13:34N 54°52' E 019°10'2019.6
2017-Jan-12 12:33N 54°35' E 018°53'1211.8
2017-Jan-12 11:33N 54°32' E 018°33'1 1.4
2017-Jan-12 10:31N 54°33' E 018°31'0 0.0
2017-Jan-12 09:31N 54°33' E 018°31'0 0.0
2017-Jan-12 08:31N 54°33' E 018°31'0 0.0
2017-Jan-12 07:31N 54°33' E 018°31'0 0.0
2017-Jan-12 06:31N 54°33' E 018°31'0 0.0
2017-Jan-12 05:31N 54°33' E 018°31'0 0.0
2017-Jan-12 04:31N 54°33' E 018°31'0 0.0
2017-Jan-12 03:31N 54°33' E 018°31'0 0.0
2017-Jan-12 02:31N 54°33' E 018°31'0 0.0
2017-Jan-12 01:31N 54°33' E 018°31'0 0.0
2017-Jan-12 00:31N 54°33' E 018°31'0 0.0
2017-Jan-11 23:31N 54°33' E 018°31'0 0.0
2017-Jan-11 22:31N 54°33' E 018°31'0 0.0
2017-Jan-11 21:31N 54°33' E 018°31'0 0.0
2017-Jan-11 20:31N 54°33' E 018°31'0 0.0
2017-Jan-11 19:31N 54°33' E 018°31'0 0.0
2017-Jan-11 18:31N 54°33' E 018°31'0 0.0
2017-Jan-11 17:31N 54°33' E 018°31'0 0.0
2017-Jan-11 16:31N 54°33' E 018°31'0 0.0
2017-Jan-11 15:31N 54°33' E 018°31'0 0.0
2017-Jan-11 14:31N 54°33' E 018°31'0 0.0
2017-Jan-11 13:31N 54°33' E 018°31'0 0.0
2017-Jan-11 12:31N 54°33' E 018°31'0 0.0
2017-Jan-11 11:31N 54°33' E 018°31'0 0.0
2017-Jan-11 10:31N 54°33' E 018°31'0 0.0
2017-Jan-11 09:31N 54°33' E 018°31'0 0.0
2017-Jan-11 08:31N 54°33' E 018°31'0 0.0
2017-Jan-11 07:31N 54°33' E 018°31'0 0.0
2017-Jan-11 06:31N 54°33' E 018°31'0 0.0
2017-Jan-11 05:31N 54°33' E 018°31'0 0.0
2017-Jan-11 04:31N 54°33' E 018°31'0 0.0
2017-Jan-11 03:31N 54°33' E 018°31'3 2.9
2017-Jan-11 02:34N 54°32' E 018°36'1212.4
2017-Jan-11 01:33N 54°38' E 018°54'1615.8
2017-Jan-11 00:33N 54°53' E 018°47'1817.9
2017-Jan-10 23:33N 55°04' E 018°22'  

Dump ship's entire track history